Time;durP1;ratioP1;P1;durP2;ratioP2;P2;SDS_P1;SDS_P2;PMS_P1;PMS_P2;Temp;Humidity;BMP_temperature;BMP_pressure;BME280_temperature;BME280_humidity;BME280_pressure;Samples;Min_cycle;Max_cycle;Signal;HPM_P1;HPM_P2
2024/04/25 00:01:32;;;;;;;3.60;3.30;;;;;;;;;;5527752;26;20350;-78
2024/04/25 00:03:58;;;;;;;3.80;3.50;;;;;;;;;;5527647;26;20323;-78
2024/04/25 00:06:24;;;;;;;3.60;3.30;;;;;;;;;;5521755;26;20323;-78
2024/04/25 00:08:50;;;;;;;3.50;3.20;;;;;;;;;;5527412;26;20353;-78
2024/04/25 00:11:19;;;;;;;3.63;3.33;;;;;;;;;;5527243;26;20836;-78
2024/04/25 00:13:45;;;;;;;4.13;3.40;;;;;;;;;;5526253;26;20358;-78
2024/04/25 00:16:11;;;;;;;3.97;3.42;;;;;;;;;;5525874;26;20320;-78
2024/04/25 00:18:37;;;;;;;3.60;3.30;;;;;;;;;;5525361;26;20351;-78
2024/04/25 00:21:04;;;;;;;3.53;3.22;;;;;;;;;;5525503;26;20355;-77
2024/04/25 00:23:30;;;;;;;3.95;3.33;;;;;;;;;;5525155;26;20316;-77
2024/04/25 00:25:56;;;;;;;3.47;3.17;;;;;;;;;;5520455;26;20363;-77
2024/04/25 00:28:22;;;;;;;3.40;3.10;;;;;;;;;;5525917;26;20312;-77
2024/04/25 00:30:49;;;;;;;3.50;3.20;;;;;;;;;;5524800;26;20398;-77
2024/04/25 00:33:15;;;;;;;3.40;3.10;;;;;;;;;;5524334;26;20701;-79
2024/04/25 00:35:41;;;;;;;4.63;3.38;;;;;;;;;;5527275;26;20308;-78
2024/04/25 00:38:09;;;;;;;3.70;3.40;;;;;;;;;;5527079;26;20316;-78
2024/04/25 00:40:35;;;;;;;3.70;3.40;;;;;;;;;;5526201;26;20820;-80
2024/04/25 00:43:04;;;;;;;3.67;3.30;;;;;;;;;;5526756;26;20360;-78
2024/04/25 00:45:30;;;;;;;3.70;3.13;;;;;;;;;;5526547;26;20856;-78
2024/04/25 00:47:56;;;;;;;3.40;3.05;;;;;;;;;;5494546;26;20319;-78
2024/04/25 00:50:23;;;;;;;3.22;2.92;;;;;;;;;;5527215;26;20366;-78
2024/04/25 00:52:49;;;;;;;3.17;2.88;;;;;;;;;;5526739;26;20657;-78
2024/04/25 00:55:15;;;;;;;3.35;2.90;;;;;;;;;;5526279;26;20312;-78
2024/04/25 00:57:41;;;;;;;3.63;3.08;;;;;;;;;;5526560;26;20346;-78
2024/04/25 01:00:08;;;;;;;3.38;2.97;;;;;;;;;;5527087;26;20327;-78
2024/04/25 01:02:34;;;;;;;3.08;2.83;;;;;;;;;;5526651;26;20316;-78
2024/04/25 01:05:01;;;;;;;3.27;2.97;;;;;;;;;;5526457;26;20976;-78
2024/04/25 01:07:27;;;;;;;3.47;3.20;;;;;;;;;;5527068;26;20351;-78
2024/04/25 01:09:56;;;;;;;3.97;3.30;;;;;;;;;;5526830;26;20331;-78
2024/04/25 01:12:22;;;;;;;3.55;3.20;;;;;;;;;;5526543;26;20324;-78
2024/04/25 01:14:48;;;;;;;4.22;3.80;;;;;;;;;;5526923;26;20354;-78
2024/04/25 01:17:14;;;;;;;3.90;3.60;;;;;;;;;;5526471;26;20323;-78
2024/04/25 01:19:40;;;;;;;3.60;3.30;;;;;;;;;;5525942;26;20367;-78
2024/04/25 01:22:06;;;;;;;3.20;2.90;;;;;;;;;;5526075;26;20417;-78
2024/04/25 01:24:36;;;;;;;4.10;3.25;;;;;;;;;;5526141;26;20316;-78
2024/04/25 01:27:03;;;;;;;3.97;3.08;;;;;;;;;;5512413;26;20381;-78
2024/04/25 01:29:30;;;;;;;4.20;3.47;;;;;;;;;;5489182;26;20378;-78
2024/04/25 01:31:56;;;;;;;3.70;3.40;;;;;;;;;;5489110;26;20366;-78
2024/04/25 01:34:22;;;;;;;3.63;3.13;;;;;;;;;;5489072;26;20323;-78
2024/04/25 01:36:48;;;;;;;3.70;3.40;;;;;;;;;;5488993;26;20388;-78
2024/04/25 01:39:14;;;;;;;3.75;3.45;;;;;;;;;;5488717;26;20331;-78
2024/04/25 01:41:40;;;;;;;3.90;3.58;;;;;;;;;;5489026;26;20322;-78
2024/04/25 01:44:06;;;;;;;3.78;3.38;;;;;;;;;;5488448;26;20330;-78
2024/04/25 01:46:33;;;;;;;3.70;3.38;;;;;;;;;;5488872;26;20706;-78
2024/04/25 01:49:00;;;;;;;3.95;3.30;;;;;;;;;;5488969;26;20871;-78
2024/04/25 01:51:28;;;;;;;5.65;3.50;;;;;;;;;;5489604;26;20306;-78
2024/04/25 01:53:54;;;;;;;3.40;3.10;;;;;;;;;;5489364;26;20396;-78
2024/04/25 01:56:20;;;;;;;3.47;3.03;;;;;;;;;;5489115;26;20417;-78
2024/04/25 01:58:46;;;;;;;3.97;3.58;;;;;;;;;;5489017;26;20388;-78
2024/04/25 02:01:12;;;;;;;3.45;3.15;;;;;;;;;;5488440;26;20322;-78
2024/04/25 02:03:38;;;;;;;3.90;3.50;;;;;;;;;;5488414;26;20326;-78
2024/04/25 02:06:05;;;;;;;4.75;3.70;;;;;;;;;;5493924;26;20827;-78
2024/04/25 02:08:31;;;;;;;3.65;3.30;;;;;;;;;;5488851;26;20664;-78
2024/04/25 02:10:57;;;;;;;4.57;3.90;;;;;;;;;;5488469;26;20378;-78
2024/04/25 02:13:23;;;;;;;3.72;3.42;;;;;;;;;;5488368;26;20374;-77
2024/04/25 02:15:49;;;;;;;4.32;3.92;;;;;;;;;;5487008;26;20749;-77
2024/04/25 02:18:15;;;;;;;3.75;3.28;;;;;;;;;;5486963;26;20424;-77
2024/04/25 02:26:11;;;;;;;4.88;3.92;;;;;;;;;;5517006;26;20706;-78
2024/04/25 02:28:37;;;;;;;3.57;3.27;;;;;;;;;;5496080;26;20487;-77
2024/04/25 02:31:03;;;;;;;4.60;4.20;;;;;;;;;;5519816;26;20371;-77
2024/04/25 02:33:30;;;;;;;4.72;3.72;;;;;;;;;;5523645;26;20698;-77
2024/04/25 02:35:56;;;;;;;4.55;3.53;;;;;;;;;;5523881;26;20378;-77
2024/04/25 02:38:22;;;;;;;3.90;3.47;;;;;;;;;;5523503;26;20691;-77
2024/04/25 02:40:48;;;;;;;4.55;4.00;;;;;;;;;;5523518;26;20320;-77
2024/04/25 02:43:14;;;;;;;4.05;3.65;;;;;;;;;;5523240;26;20425;-77
2024/04/25 02:45:40;;;;;;;4.90;4.20;;;;;;;;;;5523254;26;20316;-77
2024/04/25 02:48:06;;;;;;;4.25;3.63;;;;;;;;;;5523221;26;20388;-77
2024/04/25 02:50:32;;;;;;;3.80;3.40;;;;;;;;;;5522891;26;20873;-77
2024/04/25 02:52:58;;;;;;;5.13;3.70;;;;;;;;;;5523392;26;20320;-78
2024/04/25 02:55:24;;;;;;;4.28;3.70;;;;;;;;;;5523375;26;20803;-78
2024/04/25 02:57:52;;;;;;;4.73;3.83;;;;;;;;;;5525689;26;20323;-77
2024/04/25 03:00:18;;;;;;;4.32;3.97;;;;;;;;;;5527091;26;20332;-78
2024/04/25 03:02:44;;;;;;;4.65;3.92;;;;;;;;;;5527066;26;20315;-77
2024/04/25 03:05:10;;;;;;;4.15;3.75;;;;;;;;;;5527094;26;20319;-77
2024/04/25 03:07:36;;;;;;;4.18;3.75;;;;;;;;;;5526869;26;20375;-77
2024/04/25 03:10:02;;;;;;;4.25;3.45;;;;;;;;;;5526510;26;20890;-78
2024/04/25 03:12:28;;;;;;;3.85;3.47;;;;;;;;;;5494047;26;20323;-78
2024/04/25 03:14:54;;;;;;;3.60;3.30;;;;;;;;;;5526895;26;20723;-77
2024/04/25 03:17:20;;;;;;;3.20;2.90;;;;;;;;;;5526562;26;20320;-77
2024/04/25 03:19:46;;;;;;;4.47;3.33;;;;;;;;;;5526678;26;20359;-77
2024/04/25 03:22:12;;;;;;;4.65;3.63;;;;;;;;;;5526820;26;20524;-77
2024/04/25 03:24:38;;;;;;;4.10;3.70;;;;;;;;;;5526386;26;20689;-78
2024/04/25 03:27:04;;;;;;;4.03;3.50;;;;;;;;;;5526497;26;20327;-77
2024/04/25 03:29:30;;;;;;;3.20;2.90;;;;;;;;;;5526128;26;20370;-77
2024/04/25 03:31:56;;;;;;;3.60;3.28;;;;;;;;;;5493770;26;20333;-79
2024/04/25 03:34:22;;;;;;;4.00;3.30;;;;;;;;;;5491213;26;20322;-79
2024/04/25 03:36:52;;;;;;;3.65;3.35;;;;;;;;;;5490217;26;20326;-77
2024/04/25 03:39:21;;;;;;;3.67;3.20;;;;;;;;;;5491158;26;20420;-78
2024/04/25 03:41:50;;;;;;;4.72;4.00;;;;;;;;;;5491479;26;20417;-78
2024/04/25 03:44:16;;;;;;;4.40;3.85;;;;;;;;;;5491605;26;20352;-78
2024/04/25 03:46:46;;;;;;;4.50;3.90;;;;;;;;;;5491537;26;20345;-78
2024/04/25 03:49:12;;;;;;;4.05;3.65;;;;;;;;;;5491439;26;20318;-78
2024/04/25 03:51:38;;;;;;;4.50;4.00;;;;;;;;;;5491212;26;20752;-78
2024/04/25 03:54:04;;;;;;;6.18;4.28;;;;;;;;;;5491045;26;20357;-78
2024/04/25 03:56:30;;;;;;;4.55;3.40;;;;;;;;;;5490457;26;20397;-78
2024/04/25 03:58:56;;;;;;;3.80;3.40;;;;;;;;;;5494619;26;20326;-78
2024/04/25 04:01:22;;;;;;;4.60;3.80;;;;;;;;;;5490576;26;20370;-79
2024/04/25 04:03:48;;;;;;;3.80;3.50;;;;;;;;;;5490496;26;20369;-78
2024/04/25 04:06:18;;;;;;;5.47;4.32;;;;;;;;;;5490580;26;20310;-78
2024/04/25 04:08:44;;;;;;;4.20;3.80;;;;;;;;;;5491110;26;20322;-79
2024/04/25 04:11:10;;;;;;;4.07;3.65;;;;;;;;;;5490502;26;20358;-79
2024/04/25 04:13:36;;;;;;;4.80;4.30;;;;;;;;;;5490602;26;20477;-78
2024/04/25 04:16:03;;;;;;;3.70;3.40;;;;;;;;;;5524085;26;20316;-78
2024/04/25 04:18:29;;;;;;;4.32;3.72;;;;;;;;;;5526072;26;20316;-79
2024/04/25 04:20:55;;;;;;;4.70;3.63;;;;;;;;;;5526932;26;20320;-78
2024/04/25 04:23:20;;;;;;;4.13;3.53;;;;;;;;;;5526695;26;20304;-80
2024/04/25 04:25:46;;;;;;;4.60;3.35;;;;;;;;;;5526553;26;20756;-78
2024/04/25 04:28:12;;;;;;;3.50;3.20;;;;;;;;;;5493068;26;20327;-77
2024/04/25 04:30:38;;;;;;;3.30;3.00;;;;;;;;;;5508028;26;20401;-77
2024/04/25 04:33:04;;;;;;;4.18;3.00;;;;;;;;;;5494500;26;20354;-77
2024/04/25 04:35:30;;;;;;;3.72;3.38;;;;;;;;;;5521803;26;20358;-78
2024/04/25 04:37:57;;;;;;;4.40;3.30;;;;;;;;;;5525877;26;20311;-77
2024/04/25 04:40:23;;;;;;;3.47;2.97;;;;;;;;;;5525723;26;20335;-77
2024/04/25 04:42:49;;;;;;;3.67;2.90;;;;;;;;;;5525533;26;20312;-78
2024/04/25 04:45:15;;;;;;;3.28;2.97;;;;;;;;;;5525650;26;20312;-77
2024/04/25 04:47:41;;;;;;;3.53;3.20;;;;;;;;;;5525347;26;20312;-77
2024/04/25 04:50:07;;;;;;;3.55;3.25;;;;;;;;;;5525385;26;20729;-77
2024/04/25 04:52:33;;;;;;;3.78;3.47;;;;;;;;;;5525191;26;20688;-77
2024/04/25 04:54:59;;;;;;;4.15;3.70;;;;;;;;;;5525094;26;20327;-77
2024/04/25 04:57:26;;;;;;;4.10;3.33;;;;;;;;;;5525894;26;21016;-79
2024/04/25 04:59:52;;;;;;;4.10;3.70;;;;;;;;;;5525212;26;20816;-77
2024/04/25 05:02:18;;;;;;;4.78;3.65;;;;;;;;;;5525155;26;20354;-77
2024/04/25 05:04:44;;;;;;;5.07;4.13;;;;;;;;;;5525187;26;20654;-77
2024/04/25 05:07:10;;;;;;;4.40;4.00;;;;;;;;;;5525021;26;20319;-77
2024/04/25 05:09:36;;;;;;;4.60;4.20;;;;;;;;;;5524905;26;20332;-77
2024/04/25 05:12:02;;;;;;;4.47;3.97;;;;;;;;;;5524777;26;20658;-77
2024/04/25 05:14:28;;;;;;;3.95;3.58;;;;;;;;;;5525211;26;20323;-78
2024/04/25 05:16:54;;;;;;;5.23;4.27;;;;;;;;;;5525026;26;21055;-78
2024/04/25 05:19:20;;;;;;;5.40;4.15;;;;;;;;;;5523569;26;20312;-77
2024/04/25 05:21:50;;;;;;;5.15;3.97;;;;;;;;;;5524545;26;20816;-78
2024/04/25 05:24:16;;;;;;;4.20;3.80;;;;;;;;;;5525190;26;20402;-78
2024/04/25 05:26:42;;;;;;;4.07;3.67;;;;;;;;;;5525610;26;20320;-78
2024/04/25 05:29:09;;;;;;;5.22;4.43;;;;;;;;;;5524344;26;20328;-77
2024/04/25 05:31:35;;;;;;;4.53;4.17;;;;;;;;;;5524760;26;20312;-77
2024/04/25 05:34:01;;;;;;;5.25;4.38;;;;;;;;;;5502700;26;20818;-77
2024/04/25 05:36:27;;;;;;;5.07;4.10;;;;;;;;;;5488735;26;20760;-78
2024/04/25 05:38:53;;;;;;;4.82;4.32;;;;;;;;;;5486366;26;20338;-78
2024/04/25 05:41:19;;;;;;;4.65;4.07;;;;;;;;;;5489451;26;20432;-79
2024/04/25 05:43:45;;;;;;;4.40;4.00;;;;;;;;;;5490152;26;20417;-79
2024/04/25 05:46:11;;;;;;;6.07;4.13;;;;;;;;;;5489547;26;20350;-79
2024/04/25 05:48:38;;;;;;;5.53;4.28;;;;;;;;;;5488705;26;20322;-79
2024/04/25 05:51:04;;;;;;;4.90;4.40;;;;;;;;;;5488815;26;20326;-78
2024/04/25 05:53:30;;;;;;;5.65;4.43;;;;;;;;;;5493886;26;20375;-78
2024/04/25 05:55:56;;;;;;;4.70;4.25;;;;;;;;;;5488966;26;20815;-79
2024/04/25 05:58:22;;;;;;;6.10;4.57;;;;;;;;;;5488469;26;20331;-79
2024/04/25 06:00:48;;;;;;;5.38;4.53;;;;;;;;;;5488216;26;20355;-79
2024/04/25 06:03:14;;;;;;;4.55;4.13;;;;;;;;;;5487679;26;20326;-79
2024/04/25 06:05:40;;;;;;;4.80;4.30;;;;;;;;;;5487780;26;20663;-79
2024/04/25 06:08:06;;;;;;;5.40;4.63;;;;;;;;;;5514936;26;20323;-79
2024/04/25 06:10:32;;;;;;;5.82;4.18;;;;;;;;;;5525213;26;20820;-79
2024/04/25 06:12:58;;;;;;;5.82;4.60;;;;;;;;;;5525796;26;20415;-79
2024/04/25 06:15:24;;;;;;;6.33;4.53;;;;;;;;;;5525278;26;20772;-79
2024/04/25 06:17:50;;;;;;;4.32;3.90;;;;;;;;;;5525449;26;20744;-79
2024/04/25 06:20:19;;;;;;;4.17;3.70;;;;;;;;;;5525215;26;20850;-79
2024/04/25 06:22:45;;;;;;;4.95;4.50;;;;;;;;;;5525544;26;20320;-79
2024/04/25 06:25:11;;;;;;;4.90;4.23;;;;;;;;;;5524910;26;20372;-79
2024/04/25 06:27:37;;;;;;;4.90;4.20;;;;;;;;;;5525091;26;20714;-79
2024/04/25 06:30:03;;;;;;;5.20;4.70;;;;;;;;;;5524515;26;20848;-78
2024/04/25 06:32:29;;;;;;;5.22;4.72;;;;;;;;;;5523655;26;20364;-78
2024/04/25 06:34:55;;;;;;;5.22;4.63;;;;;;;;;;5497329;26;20330;-79
2024/04/25 06:37:21;;;;;;;6.88;4.57;;;;;;;;;;5488147;26;20326;-79
2024/04/25 06:39:47;;;;;;;4.82;4.32;;;;;;;;;;5488194;26;20322;-79
2024/04/25 06:42:14;;;;;;;7.00;4.35;;;;;;;;;;5488165;26;20416;-79
2024/04/25 06:44:40;;;;;;;4.97;4.07;;;;;;;;;;5488048;26;20345;-78
2024/04/25 06:47:06;;;;;;;7.20;4.22;;;;;;;;;;5486996;26;20663;-78
2024/04/25 06:49:32;;;;;;;4.70;4.30;;;;;;;;;;5487198;26;20366;-78
2024/04/25 06:51:59;;;;;;;5.18;4.35;;;;;;;;;;5487059;26;20428;-78
2024/04/25 06:54:24;;;;;;;4.85;4.32;;;;;;;;;;5487300;26;20427;-79
2024/04/25 06:56:50;;;;;;;4.50;4.10;;;;;;;;;;5487424;26;20338;-79
2024/04/25 06:59:16;;;;;;;5.43;4.93;;;;;;;;;;5487007;26;20367;-79
2024/04/25 07:01:42;;;;;;;5.85;4.25;;;;;;;;;;5487308;26;20370;-79
2024/04/25 07:04:08;;;;;;;5.45;4.68;;;;;;;;;;5487205;26;20405;-79
2024/04/25 07:06:34;;;;;;;5.43;4.03;;;;;;;;;;5487435;26;20356;-79
2024/04/25 07:09:03;;;;;;;5.40;4.05;;;;;;;;;;5487399;26;20327;-79
2024/04/25 07:11:29;;;;;;;7.63;4.43;;;;;;;;;;5487515;26;20314;-79
2024/04/25 07:13:55;;;;;;;5.40;3.75;;;;;;;;;;5487488;26;20314;-79
2024/04/25 07:16:21;;;;;;;7.53;4.30;;;;;;;;;;5487797;26;20363;-79
2024/04/25 07:18:47;;;;;;;4.33;3.93;;;;;;;;;;5486807;26;20507;-79
2024/04/25 07:21:13;;;;;;;5.20;3.88;;;;;;;;;;5487708;26;20683;-79
2024/04/25 07:23:39;;;;;;;4.63;3.88;;;;;;;;;;5487457;26;20357;-79
2024/04/25 07:26:05;;;;;;;5.13;4.20;;;;;;;;;;5487534;26;20378;-79
2024/04/25 07:28:34;;;;;;;8.75;4.55;;;;;;;;;;5486762;26;20326;-79
2024/04/25 07:31:02;;;;;;;4.50;3.97;;;;;;;;;;5486972;26;20359;-79
2024/04/25 07:33:28;;;;;;;4.70;3.25;;;;;;;;;;5486649;26;20326;-78
2024/04/25 07:35:54;;;;;;;4.40;3.65;;;;;;;;;;5492956;26;20759;-78
2024/04/25 07:38:20;;;;;;;4.50;3.65;;;;;;;;;;5523772;26;20356;-78
2024/04/25 07:40:46;;;;;;;5.03;3.90;;;;;;;;;;5523506;26;20315;-78
2024/04/25 07:43:12;;;;;;;4.32;3.50;;;;;;;;;;5524876;26;20320;-78
2024/04/25 07:45:38;;;;;;;5.80;4.10;;;;;;;;;;5527027;26;20363;-79
2024/04/25 07:48:04;;;;;;;4.68;4.00;;;;;;;;;;5527166;26;20331;-78
2024/04/25 07:50:30;;;;;;;6.93;3.95;;;;;;;;;;5521009;26;20328;-78
2024/04/25 07:52:56;;;;;;;4.77;4.07;;;;;;;;;;5527056;26;20433;-78
2024/04/25 07:55:22;;;;;;;5.20;3.60;;;;;;;;;;5527645;26;20316;-78
2024/04/25 07:57:48;;;;;;;5.55;3.55;;;;;;;;;;5527867;26;20312;-78
2024/04/25 08:00:14;;;;;;;4.65;3.85;;;;;;;;;;5527408;26;20379;-78
2024/04/25 08:02:40;;;;;;;4.78;3.47;;;;;;;;;;5527172;26;20312;-78
2024/04/25 08:05:07;;;;;;;6.10;3.57;;;;;;;;;;5527027;26;20308;-78
2024/04/25 08:07:34;;;;;;;5.40;3.30;;;;;;;;;;5527293;26;20360;-78
2024/04/25 08:10:00;;;;;;;4.47;3.42;;;;;;;;;;5526301;26;20646;-78
2024/04/25 08:12:26;;;;;;;7.32;3.75;;;;;;;;;;5525860;26;20360;-78
2024/04/25 08:14:52;;;;;;;5.95;3.50;;;;;;;;;;5525288;26;20371;-77
2024/04/25 08:17:18;;;;;;;6.90;3.47;;;;;;;;;;5525581;26;20401;-78
2024/04/25 08:19:44;;;;;;;4.65;3.25;;;;;;;;;;5525813;26;20796;-78
2024/04/25 08:22:10;;;;;;;4.60;3.10;;;;;;;;;;5526117;26;20316;-78
2024/04/25 08:24:36;;;;;;;3.70;3.10;;;;;;;;;;5525351;26;20319;-78
2024/04/25 08:27:02;;;;;;;5.57;3.15;;;;;;;;;;5525790;26;20416;-78
2024/04/25 08:29:28;;;;;;;4.93;3.00;;;;;;;;;;5525882;26;20804;-78
2024/04/25 08:31:54;;;;;;;3.80;2.80;;;;;;;;;;5526072;26;20416;-78
2024/04/25 08:34:20;;;;;;;4.57;2.85;;;;;;;;;;5525363;26;20836;-78
2024/04/25 08:36:46;;;;;;;4.68;2.90;;;;;;;;;;5525502;26;20320;-78
2024/04/25 08:39:12;;;;;;;4.03;3.03;;;;;;;;;;5525020;26;20688;-78
2024/04/25 08:41:43;;;;;;;4.97;2.90;;;;;;;;;;5525048;26;20677;-78
2024/04/25 08:44:09;;;;;;;4.93;2.90;;;;;;;;;;5525040;26;20677;-78
2024/04/25 08:46:35;;;;;;;4.32;2.80;;;;;;;;;;5525184;26;20509;-78
2024/04/25 08:49:01;;;;;;;4.38;2.75;;;;;;;;;;5525383;26;20320;-79
2024/04/25 08:51:32;;;;;;;4.53;3.42;;;;;;;;;;5525704;26;20323;-79
2024/04/25 08:54:02;;;;;;;4.90;3.00;;;;;;;;;;5524014;26;20355;-79
2024/04/25 08:56:29;;;;;;;4.20;2.50;;;;;;;;;;5524915;26;20312;-79
2024/04/25 08:58:55;;;;;;;4.80;2.60;;;;;;;;;;5525445;26;20311;-79
2024/04/25 09:01:21;;;;;;;3.10;2.72;;;;;;;;;;5492800;26;20348;-79
2024/04/25 09:03:49;;;;;;;5.65;2.97;;;;;;;;;;5524835;26;20344;-79
2024/04/25 09:06:15;;;;;;;3.43;2.83;;;;;;;;;;5525012;26;20442;-79
2024/04/25 09:08:41;;;;;;;3.17;2.80;;;;;;;;;;5525302;26;20841;-79
2024/04/25 09:11:17;;;;;;;4.22;2.65;;;;;;;;;;5524988;26;20343;-79
2024/04/25 09:13:50;;;;;;;4.28;2.92;;;;;;;;;;5524917;26;20316;-79
2024/04/25 09:16:16;;;;;;;6.15;2.88;;;;;;;;;;5524871;26;20412;-79
2024/04/25 09:18:42;;;;;;;6.53;2.90;;;;;;;;;;5524808;26;20320;-79
2024/04/25 09:21:09;;;;;;;4.75;3.40;;;;;;;;;;5525127;26;20316;-79
2024/04/25 09:23:38;;;;;;;5.05;3.20;;;;;;;;;;5524957;26;20316;-79
2024/04/25 09:26:04;;;;;;;4.22;3.05;;;;;;;;;;5525383;26;20320;-79
2024/04/25 09:28:30;;;;;;;4.38;2.70;;;;;;;;;;5525056;26;20349;-79
2024/04/25 09:30:56;;;;;;;4.80;3.75;;;;;;;;;;5525354;26;20390;-79
2024/04/25 09:33:22;;;;;;;6.03;3.28;;;;;;;;;;5525223;26;20311;-79
2024/04/25 09:35:50;;;;;;;4.07;3.30;;;;;;;;;;5524830;26;20856;-79
2024/04/25 09:38:16;;;;;;;4.63;2.77;;;;;;;;;;5524767;26;20342;-79
2024/04/25 09:40:46;;;;;;;3.78;2.38;;;;;;;;;;5524869;26;20836;-79
2024/04/25 09:43:13;;;;;;;3.10;2.80;;;;;;;;;;5520797;26;20338;-79
2024/04/25 09:45:40;;;;;;;4.03;2.50;;;;;;;;;;5487521;26;20408;-79
2024/04/25 09:48:20;;;;;;;3.72;2.65;;;;;;;;;;5488089;26;20420;-79
2024/04/25 09:50:53;;;;;;;4.38;2.38;;;;;;;;;;5487187;26;20345;-79
2024/04/25 09:53:38;;;;;;;3.43;2.00;;;;;;;;;;5488556;26;20322;-79
2024/04/25 09:56:04;;;;;;;3.63;2.35;;;;;;;;;;5488020;26;20311;-79
2024/04/25 09:58:43;;;;;;;3.55;2.20;;;;;;;;;;5487609;26;20362;-79
2024/04/25 10:01:09;;;;;;;5.40;2.70;;;;;;;;;;5487817;26;20366;-79
2024/04/25 10:03:35;;;;;;;4.18;2.45;;;;;;;;;;5487290;26;20334;-79
2024/04/25 10:06:01;;;;;;;5.00;2.15;;;;;;;;;;5487145;26;20330;-76
2024/04/25 10:08:27;;;;;;;3.88;2.40;;;;;;;;;;5486836;26;20367;-77
2024/04/25 10:10:53;;;;;;;3.08;2.00;;;;;;;;;;5486760;26;20323;-77
2024/04/25 10:13:24;;;;;;;3.40;2.15;;;;;;;;;;5486707;26;20349;-78
2024/04/25 10:15:53;;;;;;;3.83;2.40;;;;;;;;;;5487121;26;20831;-78
2024/04/25 10:18:19;;;;;;;3.95;2.17;;;;;;;;;;5486895;26;20356;-77
2024/04/25 10:20:47;;;;;;;5.40;2.55;;;;;;;;;;5486894;26;20412;-77
2024/04/25 10:23:13;;;;;;;3.45;2.20;;;;;;;;;;5488574;26;20327;-77
2024/04/25 10:25:39;;;;;;;2.70;2.38;;;;;;;;;;5523672;26;20320;-78
2024/04/25 10:28:05;;;;;;;3.85;2.10;;;;;;;;;;5523519;26;20328;-78
2024/04/25 10:30:34;;;;;;;3.53;2.20;;;;;;;;;;5523133;26;21017;-78
2024/04/25 10:33:01;;;;;;;5.00;1.98;;;;;;;;;;5523382;26;21343;-78
2024/04/25 10:35:35;;;;;;;3.53;2.40;;;;;;;;;;5523374;26;20331;-78
2024/04/25 10:38:01;;;;;;;3.10;2.28;;;;;;;;;;5523241;26;20417;-78
2024/04/25 10:40:29;;;;;;;2.70;2.03;;;;;;;;;;5523096;26;20332;-78
2024/04/25 10:43:01;;;;;;;4.10;2.33;;;;;;;;;;5523555;26;20401;-78
2024/04/25 10:45:27;;;;;;;2.55;2.15;;;;;;;;;;5523230;26;20312;-78
2024/04/25 10:47:53;;;;;;;3.92;1.90;;;;;;;;;;5523458;26;20698;-78
2024/04/25 10:50:20;;;;;;;2.47;1.70;;;;;;;;;;5523161;26;20822;-78
2024/04/25 10:52:46;;;;;;;3.42;2.03;;;;;;;;;;5523182;26;20352;-78
2024/04/25 10:55:12;;;;;;;5.05;2.10;;;;;;;;;;5523000;26;20371;-78
2024/04/25 10:57:38;;;;;;;4.03;2.20;;;;;;;;;;5522829;26;20348;-78
2024/04/25 11:00:04;;;;;;;5.50;2.40;;;;;;;;;;5522790;26;20319;-78
2024/04/25 11:02:34;;;;;;;2.47;1.95;;;;;;;;;;5522680;26;20805;-78
2024/04/25 11:05:00;;;;;;;3.05;2.00;;;;;;;;;;5522633;26;20368;-78
2024/04/25 11:07:26;;;;;;;4.07;2.25;;;;;;;;;;5522725;26;20319;-78
2024/04/25 11:09:54;;;;;;;2.80;2.20;;;;;;;;;;5522491;26;20345;-78
2024/04/25 11:12:21;;;;;;;2.80;2.00;;;;;;;;;;5522619;26;20323;-77
2024/04/25 11:14:47;;;;;;;3.30;2.45;;;;;;;;;;5522768;26;20410;-78
2024/04/25 11:17:14;;;;;;;3.60;2.00;;;;;;;;;;5522932;26;20411;-78
2024/04/25 11:19:40;;;;;;;4.28;2.28;;;;;;;;;;5526306;26;20425;-78
2024/04/25 11:22:06;;;;;;;3.50;2.20;;;;;;;;;;5526451;26;20342;-78
2024/04/25 11:24:32;;;;;;;3.90;2.20;;;;;;;;;;5526207;26;20319;-77
2024/04/25 11:26:58;;;;;;;3.58;2.15;;;;;;;;;;5526258;26;20319;-78
2024/04/25 11:29:25;;;;;;;2.65;2.28;;;;;;;;;;5526296;26;20356;-78
2024/04/25 11:31:51;;;;;;;3.13;2.20;;;;;;;;;;5526262;26;20363;-78
2024/04/25 11:34:19;;;;;;;3.38;2.20;;;;;;;;;;5526056;26;20324;-78
2024/04/25 11:36:56;;;;;;;3.33;1.80;;;;;;;;;;5526183;26;20367;-77
2024/04/25 11:39:22;;;;;;;3.03;1.97;;;;;;;;;;5525995;26;20363;-77
2024/04/25 11:41:48;;;;;;;3.63;1.70;;;;;;;;;;5526376;26;20646;-77
2024/04/25 11:44:14;;;;;;;2.53;1.73;;;;;;;;;;5526328;26;20319;-77
2024/04/25 11:46:41;;;;;;;2.97;1.88;;;;;;;;;;5526027;26;20800;-77
2024/04/25 11:49:07;;;;;;;2.83;2.00;;;;;;;;;;5525924;26;20348;-77
2024/04/25 11:51:33;;;;;;;3.17;2.25;;;;;;;;;;5510764;26;20318;-77
2024/04/25 11:53:59;;;;;;;3.00;2.17;;;;;;;;;;5489078;26;20326;-77
2024/04/25 11:56:25;;;;;;;3.78;2.05;;;;;;;;;;5488903;26;20353;-77
2024/04/25 11:58:52;;;;;;;2.80;2.05;;;;;;;;;;5488868;26;20318;-77
2024/04/25 12:01:18;;;;;;;3.30;2.10;;;;;;;;;;5488992;26;20438;-77
2024/04/25 12:03:44;;;;;;;2.28;2.00;;;;;;;;;;5488663;26;20413;-77
2024/04/25 12:06:10;;;;;;;2.92;1.95;;;;;;;;;;5489118;26;20310;-77
2024/04/25 12:08:37;;;;;;;2.08;1.88;;;;;;;;;;5488821;26;20330;-77
2024/04/25 12:11:04;;;;;;;3.28;2.30;;;;;;;;;;5489149;26;20840;-77
2024/04/25 12:13:29;;;;;;;3.05;2.22;;;;;;;;;;5488900;26;20315;-78
2024/04/25 12:15:56;;;;;;;2.70;2.00;;;;;;;;;;5488730;26;20369;-78
2024/04/25 12:18:23;;;;;;;3.40;2.10;;;;;;;;;;5488930;26;20325;-77
2024/04/25 12:20:49;;;;;;;2.88;2.30;;;;;;;;;;5488808;26;20424;-78
2024/04/25 12:23:16;;;;;;;3.60;2.53;;;;;;;;;;5489163;26;20338;-78
2024/04/25 12:25:42;;;;;;;2.95;2.40;;;;;;;;;;5508012;26;20320;-77
2024/04/25 12:28:08;;;;;;;3.03;2.70;;;;;;;;;;5525392;26;20750;-78
2024/04/25 12:30:37;;;;;;;4.13;2.70;;;;;;;;;;5525432;26;20848;-78
2024/04/25 12:33:03;;;;;;;3.22;2.45;;;;;;;;;;5525747;26;20379;-78
2024/04/25 12:35:29;;;;;;;2.88;2.17;;;;;;;;;;5525584;26;20364;-77
2024/04/25 12:37:55;;;;;;;3.63;2.10;;;;;;;;;;5525317;26;20808;-77
2024/04/25 12:40:21;;;;;;;4.07;2.30;;;;;;;;;;5492358;26;20324;-77
2024/04/25 12:42:47;;;;;;;2.47;2.08;;;;;;;;;;5525046;26;20862;-78
2024/04/25 12:45:17;;;;;;;3.92;2.10;;;;;;;;;;5525163;26;20327;-77
2024/04/25 12:47:43;;;;;;;2.55;2.08;;;;;;;;;;5525211;26;20724;-77
2024/04/25 12:50:09;;;;;;;3.88;2.05;;;;;;;;;;5524760;26;20365;-77
2024/04/25 12:52:35;;;;;;;3.97;1.97;;;;;;;;;;5524910;26;20320;-77
2024/04/25 12:55:01;;;;;;;2.40;2.00;;;;;;;;;;5524632;26;20319;-77
2024/04/25 12:57:27;;;;;;;2.72;2.05;;;;;;;;;;5524900;26;20331;-77
2024/04/25 12:59:53;;;;;;;3.00;2.20;;;;;;;;;;5524622;26;20315;-77
2024/04/25 13:02:22;;;;;;;3.80;1.80;;;;;;;;;;5525033;26;20812;-77
2024/04/25 13:04:48;;;;;;;3.35;2.08;;;;;;;;;;5525176;26;20329;-77
2024/04/25 13:07:14;;;;;;;2.20;1.50;;;;;;;;;;5524903;26;20312;-77
2024/04/25 13:09:40;;;;;;;2.43;1.80;;;;;;;;;;5524648;26;20772;-77
2024/04/25 13:12:06;;;;;;;3.97;1.95;;;;;;;;;;5524645;26;20315;-77
2024/04/25 13:14:32;;;;;;;1.95;1.50;;;;;;;;;;5524636;26;20797;-77
2024/04/25 13:16:58;;;;;;;5.18;1.50;;;;;;;;;;5524760;26;20331;-77
2024/04/25 13:19:24;;;;;;;2.70;1.55;;;;;;;;;;5524500;26;20324;-78
2024/04/25 13:21:50;;;;;;;1.85;1.52;;;;;;;;;;5524711;26;20367;-78
2024/04/25 13:24:16;;;;;;;2.30;1.50;;;;;;;;;;5524614;26;20357;-78
2024/04/25 13:26:42;;;;;;;3.43;1.70;;;;;;;;;;5524192;26;20376;-77
2024/04/25 13:29:08;;;;;;;2.70;1.50;;;;;;;;;;5492081;26;20324;-77
2024/04/25 13:31:35;;;;;;;2.70;1.60;;;;;;;;;;5523261;26;20372;-77
2024/04/25 13:34:01;;;;;;;2.55;1.60;;;;;;;;;;5523823;26;20308;-77
2024/04/25 13:36:27;;;;;;;2.97;1.73;;;;;;;;;;5523963;26;20530;-78
2024/04/25 13:38:53;;;;;;;2.53;1.60;;;;;;;;;;5523620;26;20320;-78
2024/04/25 13:41:19;;;;;;;2.20;1.70;;;;;;;;;;5522376;26;20320;-78
2024/04/25 13:43:45;;;;;;;2.53;2.07;;;;;;;;;;5523864;26;20903;-78
2024/04/25 13:46:11;;;;;;;2.92;1.70;;;;;;;;;;5523292;26;20341;-77
2024/04/25 13:48:37;;;;;;;3.10;1.90;;;;;;;;;;5522868;26;20348;-77
2024/04/25 13:51:03;;;;;;;3.80;1.70;;;;;;;;;;5521270;26;20320;-77
2024/04/25 13:53:29;;;;;;;2.10;1.67;;;;;;;;;;5490951;26;20402;-77
2024/04/25 13:55:55;;;;;;;2.28;1.75;;;;;;;;;;5486849;26;20342;-78
2024/04/25 13:58:21;;;;;;;3.85;2.47;;;;;;;;;;5487181;26;20370;-78
2024/04/25 14:00:49;;;;;;;2.45;2.00;;;;;;;;;;5485968;26;20334;-77
2024/04/25 14:03:15;;;;;;;3.10;1.80;;;;;;;;;;5486669;26;20325;-77
2024/04/25 14:05:41;;;;;;;3.50;2.33;;;;;;;;;;5486511;26;20396;-78
2024/04/25 14:08:07;;;;;;;3.70;2.00;;;;;;;;;;5486026;26;20363;-77
2024/04/25 14:10:33;;;;;;;4.00;1.85;;;;;;;;;;5486385;26;20326;-78
2024/04/25 14:12:59;;;;;;;2.83;1.90;;;;;;;;;;5486532;26;20326;-78
2024/04/25 14:15:25;;;;;;;2.85;1.90;;;;;;;;;;5488325;26;20374;-78
2024/04/25 14:17:51;;;;;;;3.75;2.10;;;;;;;;;;5512502;26;20327;-78
2024/04/25 14:20:17;;;;;;;3.13;1.77;;;;;;;;;;5524801;26;20413;-78
2024/04/25 14:22:43;;;;;;;3.00;1.90;;;;;;;;;;5524863;26;20372;-78
2024/04/25 14:30:39;;;;;;;2.75;1.73;;;;;;;;;;5524359;26;20359;-78
2024/04/25 14:33:05;;;;;;;2.83;1.70;;;;;;;;;;5524340;26;20693;-78
2024/04/25 14:35:34;;;;;;;3.20;1.83;;;;;;;;;;5525248;26;20425;-77
2024/04/25 14:38:00;;;;;;;2.58;1.60;;;;;;;;;;5524793;26;20367;-77
2024/04/25 14:40:28;;;;;;;3.38;1.80;;;;;;;;;;5524854;26;20332;-78
2024/04/25 14:42:54;;;;;;;2.97;1.80;;;;;;;;;;5525139;26;20829;-77
2024/04/25 14:45:20;;;;;;;3.05;1.80;;;;;;;;;;5524560;26;20323;-77
2024/04/25 14:47:46;;;;;;;1.85;1.50;;;;;;;;;;5524906;26;20368;-77
2024/04/25 14:50:14;;;;;;;3.13;1.83;;;;;;;;;;5524579;26;20339;-77